sensor_id;sensor_type;location;lat;lon;timestamp;temperature;humidity
10512;DHT22;5304;48.604;2.096;2022-12-29T00:01:32;11.10;99.90
10512;DHT22;5304;48.604;2.096;2022-12-29T00:04:17;11.20;99.90
10512;DHT22;5304;48.604;2.096;2022-12-29T00:07:01;11.20;99.90
10512;DHT22;5304;48.604;2.096;2022-12-29T00:09:48;11.20;99.90
10512;DHT22;5304;48.604;2.096;2022-12-29T00:12:33;11.30;99.90
10512;DHT22;5304;48.604;2.096;2022-12-29T00:15:43;11.20;99.90
10512;DHT22;5304;48.604;2.096;2022-12-29T00:18:28;11.20;99.90
10512;DHT22;5304;48.604;2.096;2022-12-29T00:21:17;11.20;99.90
10512;DHT22;5304;48.604;2.096;2022-12-29T00:24:21;11.20;99.90
10512;DHT22;5304;48.604;2.096;2022-12-29T00:30:17;11.20;99.90
10512;DHT22;5304;48.604;2.096;2022-12-29T00:33:22;11.20;99.90
10512;DHT22;5304;48.604;2.096;2022-12-29T00:36:39;11.20;99.90
10512;DHT22;5304;48.604;2.096;2022-12-29T00:39:24;11.20;99.90
10512;DHT22;5304;48.604;2.096;2022-12-29T00:42:28;11.30;99.90
10512;DHT22;5304;48.604;2.096;2022-12-29T00:45:31;11.30;99.90
10512;DHT22;5304;48.604;2.096;2022-12-29T00:48:15;11.30;99.90
10512;DHT22;5304;48.604;2.096;2022-12-29T00:51:20;11.30;99.90
10512;DHT22;5304;48.604;2.096;2022-12-29T00:54:04;11.30;99.90
10512;DHT22;5304;48.604;2.096;2022-12-29T00:56:50;11.30;99.90
10512;DHT22;5304;48.604;2.096;2022-12-29T00:59:36;11.20;99.90
10512;DHT22;5304;48.604;2.096;2022-12-29T01:02:20;11.20;99.90
10512;DHT22;5304;48.604;2.096;2022-12-29T01:05:05;11.20;99.90
10512;DHT22;5304;48.604;2.096;2022-12-29T01:07:49;11.20;99.90
10512;DHT22;5304;48.604;2.096;2022-12-29T01:10:34;11.30;99.90
10512;DHT22;5304;48.604;2.096;2022-12-29T01:13:18;11.30;99.90
10512;DHT22;5304;48.604;2.096;2022-12-29T01:16:03;11.30;99.90
10512;DHT22;5304;48.604;2.096;2022-12-29T01:18:48;11.30;99.90
10512;DHT22;5304;48.604;2.096;2022-12-29T01:21:33;11.40;99.90
10512;DHT22;5304;48.604;2.096;2022-12-29T01:24:19;11.40;99.90
10512;DHT22;5304;48.604;2.096;2022-12-29T01:27:04;11.40;99.90
10512;DHT22;5304;48.604;2.096;2022-12-29T01:29:49;11.40;99.90
10512;DHT22;5304;48.604;2.096;2022-12-29T01:32:33;11.40;99.90
10512;DHT22;5304;48.604;2.096;2022-12-29T01:35:17;11.30;99.90
10512;DHT22;5304;48.604;2.096;2022-12-29T01:38:02;11.30;99.90
10512;DHT22;5304;48.604;2.096;2022-12-29T01:40:46;11.30;99.90
10512;DHT22;5304;48.604;2.096;2022-12-29T01:46:42;11.30;99.90
10512;DHT22;5304;48.604;2.096;2022-12-29T01:49:28;11.40;99.90
10512;DHT22;5304;48.604;2.096;2022-12-29T01:52:13;11.30;99.90
10512;DHT22;5304;48.604;2.096;2022-12-29T01:54:58;11.40;99.90
10512;DHT22;5304;48.604;2.096;2022-12-29T01:57:46;11.40;99.90
10512;DHT22;5304;48.604;2.096;2022-12-29T02:00:33;11.40;99.90
10512;DHT22;5304;48.604;2.096;2022-12-29T02:03:19;11.40;99.90
10512;DHT22;5304;48.604;2.096;2022-12-29T02:06:22;11.40;99.90
10512;DHT22;5304;48.604;2.096;2022-12-29T02:09:07;11.40;99.90
10512;DHT22;5304;48.604;2.096;2022-12-29T02:11:52;11.40;99.90
10512;DHT22;5304;48.604;2.096;2022-12-29T02:14:37;11.40;99.90
10512;DHT22;5304;48.604;2.096;2022-12-29T02:39:57;11.30;99.90
10512;DHT22;5304;48.604;2.096;2022-12-29T02:42:38;11.20;99.90
10512;DHT22;5304;48.604;2.096;2022-12-29T02:45:32;10.80;99.90
10512;DHT22;5304;48.604;2.096;2022-12-29T02:48:38;10.80;99.90
10512;DHT22;5304;48.604;2.096;2022-12-29T02:54:21;10.50;99.90
10512;DHT22;5304;48.604;2.096;2022-12-29T03:00:13;10.40;99.90
10512;DHT22;5304;48.604;2.096;2022-12-29T03:11:45;10.20;99.90
10512;DHT22;5304;48.604;2.096;2022-12-29T03:14:59;10.20;99.90
10512;DHT22;5304;48.604;2.096;2022-12-29T03:18:27;10.10;99.90
10512;DHT22;5304;48.604;2.096;2022-12-29T03:24:39;10.10;99.90
10512;DHT22;5304;48.604;2.096;2022-12-29T03:27:47;10.10;99.90
10512;DHT22;5304;48.604;2.096;2022-12-29T03:30:34;10.20;99.90
10512;DHT22;5304;48.604;2.096;2022-12-29T03:33:24;10.20;99.90
10512;DHT22;5304;48.604;2.096;2022-12-29T03:36:17;10.30;99.90
10512;DHT22;5304;48.604;2.096;2022-12-29T03:39:09;10.30;99.90
10512;DHT22;5304;48.604;2.096;2022-12-29T03:42:00;10.40;99.90
10512;DHT22;5304;48.604;2.096;2022-12-29T03:44:46;10.40;99.90
10512;DHT22;5304;48.604;2.096;2022-12-29T03:47:31;10.50;99.90
10512;DHT22;5304;48.604;2.096;2022-12-29T03:50:15;10.50;99.90
10512;DHT22;5304;48.604;2.096;2022-12-29T03:53:00;10.50;99.90
10512;DHT22;5304;48.604;2.096;2022-12-29T03:55:45;10.40;99.90
10512;DHT22;5304;48.604;2.096;2022-12-29T03:58:29;10.40;99.90
10512;DHT22;5304;48.604;2.096;2022-12-29T04:01:14;10.40;99.90
10512;DHT22;5304;48.604;2.096;2022-12-29T04:03:58;10.40;99.90
10512;DHT22;5304;48.604;2.096;2022-12-29T04:06:43;10.30;99.90
10512;DHT22;5304;48.604;2.096;2022-12-29T04:09:27;10.20;99.90
10512;DHT22;5304;48.604;2.096;2022-12-29T04:12:12;10.10;99.90
10512;DHT22;5304;48.604;2.096;2022-12-29T04:14:58;10.10;99.90
10512;DHT22;5304;48.604;2.096;2022-12-29T04:17:43;10.10;99.90
10512;DHT22;5304;48.604;2.096;2022-12-29T04:20:28;10.10;99.90
10512;DHT22;5304;48.604;2.096;2022-12-29T04:23:34;10.20;99.90
10512;DHT22;5304;48.604;2.096;2022-12-29T04:26:18;10.20;99.90
10512;DHT22;5304;48.604;2.096;2022-12-29T04:29:03;10.20;99.90
10512;DHT22;5304;48.604;2.096;2022-12-29T04:31:48;10.20;99.90
10512;DHT22;5304;48.604;2.096;2022-12-29T04:34:32;10.30;99.90
10512;DHT22;5304;48.604;2.096;2022-12-29T04:37:17;10.30;99.90
10512;DHT22;5304;48.604;2.096;2022-12-29T04:40:01;10.30;99.90
10512;DHT22;5304;48.604;2.096;2022-12-29T04:42:46;10.30;99.90
10512;DHT22;5304;48.604;2.096;2022-12-29T04:45:30;10.30;99.90
10512;DHT22;5304;48.604;2.096;2022-12-29T04:48:15;10.20;99.90
10512;DHT22;5304;48.604;2.096;2022-12-29T04:51:00;10.20;99.90
10512;DHT22;5304;48.604;2.096;2022-12-29T04:53:44;10.10;99.90
10512;DHT22;5304;48.604;2.096;2022-12-29T04:56:29;10.00;99.90
10512;DHT22;5304;48.604;2.096;2022-12-29T04:59:13;10.10;99.90
10512;DHT22;5304;48.604;2.096;2022-12-29T05:01:58;10.10;99.90
10512;DHT22;5304;48.604;2.096;2022-12-29T05:04:43;10.10;99.90
10512;DHT22;5304;48.604;2.096;2022-12-29T05:07:27;10.10;99.90
10512;DHT22;5304;48.604;2.096;2022-12-29T05:10:11;10.00;99.90
10512;DHT22;5304;48.604;2.096;2022-12-29T05:12:57;10.00;99.90
10512;DHT22;5304;48.604;2.096;2022-12-29T05:15:47;10.00;99.90
10512;DHT22;5304;48.604;2.096;2022-12-29T05:18:32;10.00;99.90
10512;DHT22;5304;48.604;2.096;2022-12-29T05:21:17;9.90;99.90
10512;DHT22;5304;48.604;2.096;2022-12-29T05:24:01;10.00;99.90
10512;DHT22;5304;48.604;2.096;2022-12-29T05:26:46;9.90;99.90
10512;DHT22;5304;48.604;2.096;2022-12-29T05:29:30;9.90;99.90
10512;DHT22;5304;48.604;2.096;2022-12-29T05:32:15;9.90;99.90
10512;DHT22;5304;48.604;2.096;2022-12-29T05:34:59;9.90;99.90
10512;DHT22;5304;48.604;2.096;2022-12-29T05:37:44;9.90;99.90
10512;DHT22;5304;48.604;2.096;2022-12-29T05:40:28;9.80;99.90
10512;DHT22;5304;48.604;2.096;2022-12-29T05:43:13;9.80;99.90
10512;DHT22;5304;48.604;2.096;2022-12-29T05:45:57;9.80;99.90
10512;DHT22;5304;48.604;2.096;2022-12-29T05:48:41;9.70;99.90
10512;DHT22;5304;48.604;2.096;2022-12-29T05:51:26;9.70;99.90
10512;DHT22;5304;48.604;2.096;2022-12-29T05:54:10;9.80;99.90
10512;DHT22;5304;48.604;2.096;2022-12-29T05:56:55;9.80;99.90
10512;DHT22;5304;48.604;2.096;2022-12-29T05:59:40;9.90;99.90
10512;DHT22;5304;48.604;2.096;2022-12-29T06:02:25;9.90;99.90
10512;DHT22;5304;48.604;2.096;2022-12-29T06:05:09;9.90;99.90
10512;DHT22;5304;48.604;2.096;2022-12-29T06:07:54;9.90;99.90
10512;DHT22;5304;48.604;2.096;2022-12-29T06:10:38;9.80;99.90
10512;DHT22;5304;48.604;2.096;2022-12-29T06:13:23;9.80;99.90
10512;DHT22;5304;48.604;2.096;2022-12-29T06:16:08;9.70;99.90
10512;DHT22;5304;48.604;2.096;2022-12-29T06:18:52;9.70;99.90
10512;DHT22;5304;48.604;2.096;2022-12-29T06:21:38;9.70;99.90
10512;DHT22;5304;48.604;2.096;2022-12-29T06:24:22;9.60;99.90
10512;DHT22;5304;48.604;2.096;2022-12-29T06:27:07;9.60;99.90
10512;DHT22;5304;48.604;2.096;2022-12-29T06:29:52;9.50;99.90
10512;DHT22;5304;48.604;2.096;2022-12-29T06:32:36;9.50;99.90
10512;DHT22;5304;48.604;2.096;2022-12-29T06:35:21;9.50;99.90
10512;DHT22;5304;48.604;2.096;2022-12-29T06:38:08;9.60;99.90
10512;DHT22;5304;48.604;2.096;2022-12-29T06:40:54;9.50;99.90
10512;DHT22;5304;48.604;2.096;2022-12-29T06:43:40;9.50;99.90
10512;DHT22;5304;48.604;2.096;2022-12-29T06:46:24;9.50;99.90
10512;DHT22;5304;48.604;2.096;2022-12-29T06:49:09;9.50;99.90
10512;DHT22;5304;48.604;2.096;2022-12-29T06:51:54;9.50;99.90
10512;DHT22;5304;48.604;2.096;2022-12-29T06:54:38;9.50;99.90
10512;DHT22;5304;48.604;2.096;2022-12-29T06:57:23;9.50;99.90
10512;DHT22;5304;48.604;2.096;2022-12-29T07:00:08;9.60;99.90
10512;DHT22;5304;48.604;2.096;2022-12-29T07:02:54;9.60;99.90
10512;DHT22;5304;48.604;2.096;2022-12-29T07:05:39;9.50;99.90
10512;DHT22;5304;48.604;2.096;2022-12-29T07:08:24;9.50;99.90
10512;DHT22;5304;48.604;2.096;2022-12-29T07:11:08;9.50;99.90
10512;DHT22;5304;48.604;2.096;2022-12-29T07:13:53;9.50;99.90
10512;DHT22;5304;48.604;2.096;2022-12-29T07:16:38;9.50;99.90
10512;DHT22;5304;48.604;2.096;2022-12-29T07:19:22;9.50;99.90
10512;DHT22;5304;48.604;2.096;2022-12-29T07:22:06;9.50;99.90
10512;DHT22;5304;48.604;2.096;2022-12-29T07:24:50;9.50;99.90
10512;DHT22;5304;48.604;2.096;2022-12-29T07:27:35;9.50;99.90
10512;DHT22;5304;48.604;2.096;2022-12-29T07:30:19;9.50;99.90
10512;DHT22;5304;48.604;2.096;2022-12-29T07:33:04;9.50;99.90
10512;DHT22;5304;48.604;2.096;2022-12-29T07:35:49;9.50;99.90
10512;DHT22;5304;48.604;2.096;2022-12-29T07:38:33;9.50;99.90
10512;DHT22;5304;48.604;2.096;2022-12-29T07:41:18;9.50;99.90
10512;DHT22;5304;48.604;2.096;2022-12-29T07:44:02;9.50;99.90
10512;DHT22;5304;48.604;2.096;2022-12-29T07:46:47;9.50;99.90
10512;DHT22;5304;48.604;2.096;2022-12-29T07:49:31;9.50;99.90
10512;DHT22;5304;48.604;2.096;2022-12-29T07:52:16;9.40;99.90
10512;DHT22;5304;48.604;2.096;2022-12-29T07:55:00;9.50;99.90
10512;DHT22;5304;48.604;2.096;2022-12-29T07:57:45;9.40;99.90
10512;DHT22;5304;48.604;2.096;2022-12-29T08:00:30;9.40;99.90
10512;DHT22;5304;48.604;2.096;2022-12-29T08:03:14;9.40;99.90
10512;DHT22;5304;48.604;2.096;2022-12-29T08:05:59;9.40;99.90
10512;DHT22;5304;48.604;2.096;2022-12-29T08:08:43;9.40;99.90
10512;DHT22;5304;48.604;2.096;2022-12-29T08:11:27;9.40;99.90
10512;DHT22;5304;48.604;2.096;2022-12-29T08:14:12;9.40;99.90
10512;DHT22;5304;48.604;2.096;2022-12-29T08:16:56;9.50;99.90
10512;DHT22;5304;48.604;2.096;2022-12-29T08:19:41;9.50;99.90
10512;DHT22;5304;48.604;2.096;2022-12-29T08:22:26;9.50;99.90
10512;DHT22;5304;48.604;2.096;2022-12-29T08:25:11;9.50;99.90
10512;DHT22;5304;48.604;2.096;2022-12-29T08:27:55;9.50;99.90
10512;DHT22;5304;48.604;2.096;2022-12-29T08:30:40;9.50;99.90
10512;DHT22;5304;48.604;2.096;2022-12-29T08:33:25;9.50;99.90
10512;DHT22;5304;48.604;2.096;2022-12-29T08:36:09;9.50;99.90
10512;DHT22;5304;48.604;2.096;2022-12-29T08:38:54;9.50;99.90
10512;DHT22;5304;48.604;2.096;2022-12-29T08:41:39;9.50;99.90
10512;DHT22;5304;48.604;2.096;2022-12-29T08:44:23;9.60;99.90
10512;DHT22;5304;48.604;2.096;2022-12-29T08:47:09;9.60;99.90
10512;DHT22;5304;48.604;2.096;2022-12-29T08:49:55;9.60;99.90
10512;DHT22;5304;48.604;2.096;2022-12-29T08:52:39;9.60;99.90
10512;DHT22;5304;48.604;2.096;2022-12-29T08:55:23;9.70;99.90
10512;DHT22;5304;48.604;2.096;2022-12-29T08:58:07;9.70;99.90
10512;DHT22;5304;48.604;2.096;2022-12-29T09:00:56;9.70;99.90
10512;DHT22;5304;48.604;2.096;2022-12-29T09:03:41;9.70;99.90
10512;DHT22;5304;48.604;2.096;2022-12-29T09:06:25;9.70;99.90
10512;DHT22;5304;48.604;2.096;2022-12-29T09:09:10;9.70;99.90
10512;DHT22;5304;48.604;2.096;2022-12-29T09:11:55;9.70;99.90
10512;DHT22;5304;48.604;2.096;2022-12-29T09:14:39;9.80;99.90
10512;DHT22;5304;48.604;2.096;2022-12-29T09:17:24;9.80;99.90
10512;DHT22;5304;48.604;2.096;2022-12-29T09:20:27;9.80;99.90
10512;DHT22;5304;48.604;2.096;2022-12-29T09:23:12;9.80;99.90
10512;DHT22;5304;48.604;2.096;2022-12-29T09:25:56;9.90;99.90
10512;DHT22;5304;48.604;2.096;2022-12-29T09:28:41;9.90;99.90
10512;DHT22;5304;48.604;2.096;2022-12-29T09:31:26;9.90;99.90
10512;DHT22;5304;48.604;2.096;2022-12-29T09:34:10;10.00;99.90
10512;DHT22;5304;48.604;2.096;2022-12-29T09:36:54;10.00;99.90
10512;DHT22;5304;48.604;2.096;2022-12-29T09:39:40;10.00;99.90
10512;DHT22;5304;48.604;2.096;2022-12-29T09:45:18;10.00;99.90
10512;DHT22;5304;48.604;2.096;2022-12-29T09:48:04;10.10;99.90
10512;DHT22;5304;48.604;2.096;2022-12-29T09:50:57;10.10;99.90
10512;DHT22;5304;48.604;2.096;2022-12-29T09:53:45;10.10;99.90
10512;DHT22;5304;48.604;2.096;2022-12-29T09:56:34;10.10;99.90
10512;DHT22;5304;48.604;2.096;2022-12-29T09:59:22;10.10;99.90
10512;DHT22;5304;48.604;2.096;2022-12-29T10:02:29;10.10;99.90
10512;DHT22;5304;48.604;2.096;2022-12-29T10:08:40;10.10;99.90
10512;DHT22;5304;48.604;2.096;2022-12-29T10:18:10;10.50;99.90
10512;DHT22;5304;48.604;2.096;2022-12-29T10:24:02;10.90;99.90
10512;DHT22;5304;48.604;2.096;2022-12-29T10:26:51;10.80;99.90
10512;DHT22;5304;48.604;2.096;2022-12-29T10:29:48;10.80;99.90
10512;DHT22;5304;48.604;2.096;2022-12-29T10:32:48;10.90;99.90
10512;DHT22;5304;48.604;2.096;2022-12-29T10:35:36;10.80;99.90
10512;DHT22;5304;48.604;2.096;2022-12-29T10:38:37;10.70;99.90
10512;DHT22;5304;48.604;2.096;2022-12-29T10:41:51;10.70;99.90
10512;DHT22;5304;48.604;2.096;2022-12-29T10:44:37;10.80;99.90
10512;DHT22;5304;48.604;2.096;2022-12-29T10:47:25;11.10;99.90
10512;DHT22;5304;48.604;2.096;2022-12-29T10:50:12;11.20;99.90
10512;DHT22;5304;48.604;2.096;2022-12-29T10:53:02;11.30;99.90
10512;DHT22;5304;48.604;2.096;2022-12-29T10:55:49;11.50;99.90
10512;DHT22;5304;48.604;2.096;2022-12-29T10:58:34;11.50;99.90
10512;DHT22;5304;48.604;2.096;2022-12-29T11:01:19;11.30;99.90
10512;DHT22;5304;48.604;2.096;2022-12-29T11:07:18;11.50;99.90
10512;DHT22;5304;48.604;2.096;2022-12-29T11:10:37;11.70;99.90
10512;DHT22;5304;48.604;2.096;2022-12-29T11:13:35;11.60;99.90
10512;DHT22;5304;48.604;2.096;2022-12-29T11:16:34;11.50;99.90
10512;DHT22;5304;48.604;2.096;2022-12-29T11:19:24;11.70;99.90
10512;DHT22;5304;48.604;2.096;2022-12-29T11:25:06;11.70;99.90
10512;DHT22;5304;48.604;2.096;2022-12-29T11:28:14;11.50;99.90
10512;DHT22;5304;48.604;2.096;2022-12-29T11:31:00;11.30;99.90
10512;DHT22;5304;48.604;2.096;2022-12-29T11:33:45;11.20;99.90
10512;DHT22;5304;48.604;2.096;2022-12-29T11:36:30;11.20;99.90
10512;DHT22;5304;48.604;2.096;2022-12-29T11:39:28;11.30;99.90
10512;DHT22;5304;48.604;2.096;2022-12-29T11:42:17;11.60;99.90
10512;DHT22;5304;48.604;2.096;2022-12-29T11:45:16;11.50;99.90
10512;DHT22;5304;48.604;2.096;2022-12-29T11:48:17;11.60;99.90
10512;DHT22;5304;48.604;2.096;2022-12-29T11:51:02;11.80;99.90
10512;DHT22;5304;48.604;2.096;2022-12-29T11:53:51;12.00;99.90
10512;DHT22;5304;48.604;2.096;2022-12-29T11:56:41;12.10;99.90
10512;DHT22;5304;48.604;2.096;2022-12-29T12:05:33;11.40;99.90
10512;DHT22;5304;48.604;2.096;2022-12-29T12:08:35;11.20;99.90
10512;DHT22;5304;48.604;2.096;2022-12-29T12:11:33;11.20;99.90
10512;DHT22;5304;48.604;2.096;2022-12-29T12:14:30;11.20;99.90
10512;DHT22;5304;48.604;2.096;2022-12-29T12:17:19;11.30;99.90
10512;DHT22;5304;48.604;2.096;2022-12-29T12:20:18;11.40;99.90
10512;DHT22;5304;48.604;2.096;2022-12-29T12:23:32;11.30;99.90
10512;DHT22;5304;48.604;2.096;2022-12-29T12:26:26;11.10;99.90
10512;DHT22;5304;48.604;2.096;2022-12-29T12:29:19;11.10;99.90
10512;DHT22;5304;48.604;2.096;2022-12-29T12:35:42;11.10;99.90
10512;DHT22;5304;48.604;2.096;2022-12-29T12:50:18;11.10;99.90
10512;DHT22;5304;48.604;2.096;2022-12-29T13:00:01;11.30;99.90
10512;DHT22;5304;48.604;2.096;2022-12-29T13:25:08;11.10;99.90
10512;DHT22;5304;48.604;2.096;2022-12-29T13:27:51;11.00;99.90
10512;DHT22;5304;48.604;2.096;2022-12-29T13:31:15;11.20;99.90
10512;DHT22;5304;48.604;2.096;2022-12-29T13:37:16;11.30;99.90
10512;DHT22;5304;48.604;2.096;2022-12-29T13:40:13;11.60;99.90
10512;DHT22;5304;48.604;2.096;2022-12-29T13:42:59;11.80;99.90
10512;DHT22;5304;48.604;2.096;2022-12-29T13:45:45;12.00;99.90
10512;DHT22;5304;48.604;2.096;2022-12-29T13:48:53;12.10;99.90
10512;DHT22;5304;48.604;2.096;2022-12-29T13:51:47;12.10;99.90
10512;DHT22;5304;48.604;2.096;2022-12-29T13:57:49;12.00;99.90
10512;DHT22;5304;48.604;2.096;2022-12-29T14:03:59;11.60;99.90
10512;DHT22;5304;48.604;2.096;2022-12-29T14:06:45;11.40;99.90
10512;DHT22;5304;48.604;2.096;2022-12-29T14:09:45;11.30;99.90
10512;DHT22;5304;48.604;2.096;2022-12-29T14:12:42;11.20;99.90
10512;DHT22;5304;48.604;2.096;2022-12-29T14:15:27;11.20;99.90
10512;DHT22;5304;48.604;2.096;2022-12-29T14:18:16;11.50;99.90
10512;DHT22;5304;48.604;2.096;2022-12-29T14:33:31;11.50;99.90
10512;DHT22;5304;48.604;2.096;2022-12-29T14:36:26;11.50;99.90
10512;DHT22;5304;48.604;2.096;2022-12-29T14:39:40;11.50;99.90
10512;DHT22;5304;48.604;2.096;2022-12-29T14:42:25;11.40;99.90
10512;DHT22;5304;48.604;2.096;2022-12-29T14:47:57;11.10;99.90
10512;DHT22;5304;48.604;2.096;2022-12-29T14:50:42;11.00;99.90
10512;DHT22;5304;48.604;2.096;2022-12-29T14:56:31;10.90;99.90
10512;DHT22;5304;48.604;2.096;2022-12-29T14:59:17;11.00;99.90
10512;DHT22;5304;48.604;2.096;2022-12-29T15:02:05;11.00;99.90
10512;DHT22;5304;48.604;2.096;2022-12-29T15:04:53;10.90;99.90
10512;DHT22;5304;48.604;2.096;2022-12-29T15:07:42;10.90;99.90
10512;DHT22;5304;48.604;2.096;2022-12-29T15:10:37;10.80;99.90
10512;DHT22;5304;48.604;2.096;2022-12-29T15:13:25;10.70;99.90
10512;DHT22;5304;48.604;2.096;2022-12-29T15:16:33;10.60;99.90
10512;DHT22;5304;48.604;2.096;2022-12-29T15:19:24;10.50;99.90
10512;DHT22;5304;48.604;2.096;2022-12-29T15:22:09;10.50;99.90
10512;DHT22;5304;48.604;2.096;2022-12-29T15:24:56;10.40;99.90
10512;DHT22;5304;48.604;2.096;2022-12-29T15:27:41;10.30;99.90
10512;DHT22;5304;48.604;2.096;2022-12-29T15:30:26;10.20;99.90
10512;DHT22;5304;48.604;2.096;2022-12-29T15:33:18;10.20;99.90
10512;DHT22;5304;48.604;2.096;2022-12-29T15:36:08;10.10;99.90
10512;DHT22;5304;48.604;2.096;2022-12-29T15:38:54;10.00;99.90
10512;DHT22;5304;48.604;2.096;2022-12-29T15:41:49;9.90;99.90
10512;DHT22;5304;48.604;2.096;2022-12-29T15:44:44;9.90;99.90
10512;DHT22;5304;48.604;2.096;2022-12-29T15:47:29;9.90;99.90
10512;DHT22;5304;48.604;2.096;2022-12-29T15:50:33;9.80;99.90
10512;DHT22;5304;48.604;2.096;2022-12-29T15:53:29;9.70;99.90
10512;DHT22;5304;48.604;2.096;2022-12-29T15:56:14;9.60;99.90
10512;DHT22;5304;48.604;2.096;2022-12-29T15:58:59;9.60;99.90
10512;DHT22;5304;48.604;2.096;2022-12-29T16:01:44;9.50;99.90
10512;DHT22;5304;48.604;2.096;2022-12-29T16:04:32;9.50;99.90
10512;DHT22;5304;48.604;2.096;2022-12-29T16:07:31;9.50;99.90
10512;DHT22;5304;48.604;2.096;2022-12-29T16:10:27;9.30;99.90
10512;DHT22;5304;48.604;2.096;2022-12-29T16:16:12;9.20;99.90
10512;DHT22;5304;48.604;2.096;2022-12-29T16:18:58;9.10;99.90
10512;DHT22;5304;48.604;2.096;2022-12-29T16:21:42;8.90;99.90
10512;DHT22;5304;48.604;2.096;2022-12-29T16:24:31;8.90;99.90
10512;DHT22;5304;48.604;2.096;2022-12-29T16:27:20;8.80;99.90
10512;DHT22;5304;48.604;2.096;2022-12-29T16:30:20;8.70;99.90
10512;DHT22;5304;48.604;2.096;2022-12-29T16:33:05;8.70;99.90
10512;DHT22;5304;48.604;2.096;2022-12-29T16:35:50;8.70;99.90
10512;DHT22;5304;48.604;2.096;2022-12-29T16:38:35;8.60;99.90
10512;DHT22;5304;48.604;2.096;2022-12-29T16:41:29;8.70;99.90
10512;DHT22;5304;48.604;2.096;2022-12-29T16:47:19;8.60;99.90
10512;DHT22;5304;48.604;2.096;2022-12-29T16:50:12;8.60;99.90
10512;DHT22;5304;48.604;2.096;2022-12-29T16:52:57;8.60;99.90
10512;DHT22;5304;48.604;2.096;2022-12-29T16:55:49;8.60;99.90
10512;DHT22;5304;48.604;2.096;2022-12-29T16:58:34;8.60;99.90
10512;DHT22;5304;48.604;2.096;2022-12-29T17:01:20;8.60;99.90
10512;DHT22;5304;48.604;2.096;2022-12-29T17:04:07;8.50;99.90
10512;DHT22;5304;48.604;2.096;2022-12-29T17:06:52;8.50;99.90
10512;DHT22;5304;48.604;2.096;2022-12-29T17:09:37;8.60;99.90
10512;DHT22;5304;48.604;2.096;2022-12-29T17:12:27;8.50;99.90
10512;DHT22;5304;48.604;2.096;2022-12-29T17:15:27;8.50;99.90
10512;DHT22;5304;48.604;2.096;2022-12-29T17:18:18;8.50;99.90
10512;DHT22;5304;48.604;2.096;2022-12-29T17:21:03;8.50;99.90
10512;DHT22;5304;48.604;2.096;2022-12-29T17:23:47;8.50;99.90
10512;DHT22;5304;48.604;2.096;2022-12-29T17:26:32;8.50;99.90
10512;DHT22;5304;48.604;2.096;2022-12-29T17:29:36;8.40;99.90
10512;DHT22;5304;48.604;2.096;2022-12-29T17:32:21;8.30;99.90
10512;DHT22;5304;48.604;2.096;2022-12-29T17:35:12;8.30;99.90
10512;DHT22;5304;48.604;2.096;2022-12-29T17:37:57;8.30;99.90
10512;DHT22;5304;48.604;2.096;2022-12-29T17:40:41;8.20;99.90
10512;DHT22;5304;48.604;2.096;2022-12-29T17:43:26;8.20;99.90
10512;DHT22;5304;48.604;2.096;2022-12-29T17:46:11;8.20;99.90
10512;DHT22;5304;48.604;2.096;2022-12-29T17:48:56;8.20;99.90
10512;DHT22;5304;48.604;2.096;2022-12-29T17:51:42;8.20;99.90
10512;DHT22;5304;48.604;2.096;2022-12-29T17:54:27;8.10;99.90
10512;DHT22;5304;48.604;2.096;2022-12-29T17:57:16;8.20;99.90
10512;DHT22;5304;48.604;2.096;2022-12-29T18:00:01;8.30;99.90
10512;DHT22;5304;48.604;2.096;2022-12-29T18:02:47;8.10;99.90
10512;DHT22;5304;48.604;2.096;2022-12-29T18:05:32;8.10;99.90
10512;DHT22;5304;48.604;2.096;2022-12-29T18:08:16;8.10;99.90
10512;DHT22;5304;48.604;2.096;2022-12-29T18:11:01;8.10;99.90
10512;DHT22;5304;48.604;2.096;2022-12-29T18:13:45;8.10;99.90
10512;DHT22;5304;48.604;2.096;2022-12-29T18:16:29;8.20;99.90
10512;DHT22;5304;48.604;2.096;2022-12-29T18:19:14;8.20;99.90
10512;DHT22;5304;48.604;2.096;2022-12-29T18:21:58;8.20;99.90
10512;DHT22;5304;48.604;2.096;2022-12-29T18:24:43;8.00;99.90
10512;DHT22;5304;48.604;2.096;2022-12-29T18:27:27;8.00;99.90
10512;DHT22;5304;48.604;2.096;2022-12-29T18:30:12;7.90;99.90
10512;DHT22;5304;48.604;2.096;2022-12-29T18:32:57;7.80;99.90
10512;DHT22;5304;48.604;2.096;2022-12-29T18:35:45;7.70;99.90
10512;DHT22;5304;48.604;2.096;2022-12-29T18:38:31;7.60;99.90
10512;DHT22;5304;48.604;2.096;2022-12-29T18:41:19;7.60;99.90
10512;DHT22;5304;48.604;2.096;2022-12-29T18:44:03;7.50;99.90
10512;DHT22;5304;48.604;2.096;2022-12-29T18:46:48;7.40;99.90
10512;DHT22;5304;48.604;2.096;2022-12-29T18:49:32;7.30;99.90
10512;DHT22;5304;48.604;2.096;2022-12-29T18:52:17;7.30;99.90
10512;DHT22;5304;48.604;2.096;2022-12-29T18:55:02;7.20;99.90
10512;DHT22;5304;48.604;2.096;2022-12-29T18:57:47;7.20;99.90
10512;DHT22;5304;48.604;2.096;2022-12-29T19:00:32;7.20;99.90
10512;DHT22;5304;48.604;2.096;2022-12-29T19:03:17;7.20;99.90
10512;DHT22;5304;48.604;2.096;2022-12-29T19:06:01;7.30;99.90
10512;DHT22;5304;48.604;2.096;2022-12-29T19:08:46;7.30;99.90
10512;DHT22;5304;48.604;2.096;2022-12-29T19:11:30;7.30;99.90
10512;DHT22;5304;48.604;2.096;2022-12-29T19:14:15;7.40;99.90
10512;DHT22;5304;48.604;2.096;2022-12-29T19:17:00;7.40;99.90
10512;DHT22;5304;48.604;2.096;2022-12-29T19:19:44;7.40;99.90
10512;DHT22;5304;48.604;2.096;2022-12-29T19:22:29;7.40;99.90
10512;DHT22;5304;48.604;2.096;2022-12-29T19:25:13;7.40;99.90
10512;DHT22;5304;48.604;2.096;2022-12-29T19:27:58;7.50;99.90
10512;DHT22;5304;48.604;2.096;2022-12-29T19:30:45;7.50;99.90
10512;DHT22;5304;48.604;2.096;2022-12-29T19:33:30;7.50;99.90
10512;DHT22;5304;48.604;2.096;2022-12-29T19:36:14;7.50;99.90
10512;DHT22;5304;48.604;2.096;2022-12-29T19:38:59;7.50;99.90
10512;DHT22;5304;48.604;2.096;2022-12-29T19:41:44;7.50;99.90
10512;DHT22;5304;48.604;2.096;2022-12-29T19:44:29;7.50;99.90
10512;DHT22;5304;48.604;2.096;2022-12-29T19:47:14;7.50;99.90
10512;DHT22;5304;48.604;2.096;2022-12-29T19:49:58;7.50;99.90
10512;DHT22;5304;48.604;2.096;2022-12-29T19:52:43;7.40;99.90
10512;DHT22;5304;48.604;2.096;2022-12-29T19:55:28;7.40;99.90
10512;DHT22;5304;48.604;2.096;2022-12-29T19:58:13;7.30;99.90
10512;DHT22;5304;48.604;2.096;2022-12-29T20:01:12;7.40;99.90
10512;DHT22;5304;48.604;2.096;2022-12-29T20:03:57;7.30;99.90
10512;DHT22;5304;48.604;2.096;2022-12-29T20:06:41;7.30;99.90
10512;DHT22;5304;48.604;2.096;2022-12-29T20:09:25;7.30;99.90
10512;DHT22;5304;48.604;2.096;2022-12-29T20:12:11;7.20;99.90
10512;DHT22;5304;48.604;2.096;2022-12-29T20:14:55;7.20;99.90
10512;DHT22;5304;48.604;2.096;2022-12-29T20:17:40;7.20;99.90
10512;DHT22;5304;48.604;2.096;2022-12-29T20:20:25;7.20;99.90
10512;DHT22;5304;48.604;2.096;2022-12-29T20:23:09;7.20;99.90
10512;DHT22;5304;48.604;2.096;2022-12-29T20:25:56;7.20;99.90
10512;DHT22;5304;48.604;2.096;2022-12-29T20:28:41;7.20;99.90
10512;DHT22;5304;48.604;2.096;2022-12-29T20:31:34;7.20;99.90
10512;DHT22;5304;48.604;2.096;2022-12-29T20:34:19;7.20;99.90
10512;DHT22;5304;48.604;2.096;2022-12-29T20:37:04;7.20;99.90
10512;DHT22;5304;48.604;2.096;2022-12-29T20:39:48;7.20;99.90
10512;DHT22;5304;48.604;2.096;2022-12-29T20:42:33;7.20;99.90